Climatologie pour Saint-Brevin les Pins
Jour • Résumé pour février 11, 2018 Système :  Anglais    Métrique   Mixte
« - 1 jour
+ 1 jour »
Jour Semaine Mois Année Personnalisé
  Maximum : Minimum : Moyenne :
Température sous abri : TemperatureC °F 1.6 °F 7.6 °F
Point de rosée : DewpointC °F 0.1 °F 5.6 °F
Humidité : Humidity % 70 % 88 %
Vitesse du vent : WindSpeedKMH mph 0.0 mph 7.8 mph
Rafale : WindSpeedGustKMH mph - -
Direction :- - NW
Pression : PressurehPa in 1009.4 in -
Précipitations : 0.5 in    
Historical Graphs
 
 
Tableau de données pour février 11, 2018
Heure Tempé Pt rosée Pression Vent Vitesse Rafale Humidité Taux pluie (/hr) Soleil
TemperatureC °F DewpointC °F PressurehPa in Calm     Humidity % HourlyPrecipMM in SolarRadiationWatts/m^2 W/m2 Conditions
00:00 9.8 °F 9.5 °F 1011.7 in West 9.7 mph 32.2 mph 98 % 0.8 in 0 W/m2
00:05 9.8 °F 9.5 °F 1011.7 in West 12.9 mph 24.1 mph 98 % 0.8 in 0 W/m2
00:10 9.9 °F 9.6 °F 1011.4 in NW 16.1 mph 25.7 mph 98 % 0.8 in 0 W/m2
00:15 9.9 °F 9.6 °F 1011.4 in West 11.3 mph 25.7 mph 98 % 0.8 in 0 W/m2
00:20 9.9 °F 9.6 °F 1011.4 in West 8.0 mph 29.0 mph 98 % 0.8 in 0 W/m2
00:25 9.9 °F 9.6 °F 1011.4 in West 11.3 mph 29.0 mph 98 % 0.5 in 0 W/m2
00:30 9.9 °F 9.6 °F 1011.1 in WNW 11.3 mph 29.0 mph 98 % 0.5 in 0 W/m2
00:35 9.9 °F 9.6 °F 1011.1 in WSW 11.3 mph 29.0 mph 98 % 0.5 in 0 W/m2
00:40 10.0 °F 9.7 °F 1011.1 in WNW 14.5 mph 32.2 mph 98 % 0.3 in 0 W/m2
00:45 10.1 °F 9.8 °F 1011.1 in WSW 8.0 mph 32.2 mph 98 % 0.3 in 0 W/m2
00:50 9.9 °F 9.6 °F 1011.1 in WSW 6.4 mph 22.5 mph 98 % 0.0 in 0 W/m2
00:55 10.0 °F 9.7 °F 1011.1 in WNW 8.0 mph 22.5 mph 98 % 0.0 in 0 W/m2
01:00 10.0 °F 9.7 °F 1011.1 in NW 11.3 mph 22.5 mph 98 % 0.0 in 0 W/m2
01:10 10.0 °F 9.7 °F 1010.7 in West 8.0 mph 20.9 mph 98 % 0.0 in 0 W/m2
01:15 10.0 °F 9.7 °F 1010.7 in WNW 8.0 mph 16.1 mph 98 % 0.0 in 0 W/m2
01:20 9.9 °F 9.6 °F 1010.7 in NW 14.5 mph 16.1 mph 98 % 0.0 in 0 W/m2
01:25 9.9 °F 9.6 °F 1010.7 in WNW 11.3 mph 19.3 mph 98 % 0.0 in 0 W/m2
01:30 9.9 °F 9.6 °F 1010.7 in WNW 6.4 mph 19.3 mph 98 % 0.0 in 0 W/m2
01:35 10.0 °F 9.7 °F 1010.7 in West 9.7 mph 16.1 mph 98 % 0.0 in 0 W/m2
01:40 9.9 °F 9.6 °F 1010.7 in West 3.2 mph 17.7 mph 98 % 0.0 in 0 W/m2
01:45 10.0 °F 9.7 °F 1010.7 in WSW 8.0 mph 19.3 mph 98 % 0.0 in 0 W/m2
01:50 10.0 °F 9.7 °F 1010.4 in WNW 6.4 mph 20.9 mph 98 % 0.0 in 0 W/m2
01:55 10.0 °F 9.7 °F 1010.4 in WSW 9.7 mph 22.5 mph 98 % 0.0 in 0 W/m2
02:00 10.0 °F 9.7 °F 1010.4 in WNW 6.4 mph 24.1 mph 98 % 0.0 in 0 W/m2
02:05 10.0 °F 9.7 °F 1010.4 in WNW 3.2 mph 24.1 mph 98 % 0.0 in 0 W/m2
02:10 9.9 °F 9.6 °F 1010.4 in West 3.2 mph 19.3 mph 98 % 0.0 in 0 W/m2
02:15 9.9 °F 9.6 °F 1010.4 in West 12.9 mph 19.3 mph 98 % 0.0 in 0 W/m2
02:20 9.8 °F 9.5 °F 1010.4 in WNW 12.9 mph 22.5 mph 98 % 0.0 in 0 W/m2
02:25 9.8 °F 9.5 °F 1010.4 in NW 11.3 mph 22.5 mph 98 % 0.0 in 0 W/m2
02:30 9.8 °F 9.5 °F 1010.0 in West 3.2 mph 14.5 mph 98 % 0.0 in 0 W/m2
02:35 9.9 °F 9.6 °F 1010.0 in WNW 9.7 mph 20.9 mph 98 % 0.0 in 0 W/m2
02:40 9.9 °F 9.6 °F 1010.0 in WNW 4.8 mph 20.9 mph 98 % 0.0 in 0 W/m2
02:45 10.0 °F 9.7 °F 1010.0 in West 9.7 mph 20.9 mph 98 % 0.0 in 0 W/m2
02:50 9.9 °F 9.6 °F 1010.0 in WNW 6.4 mph 20.9 mph 98 % 0.3 in 0 W/m2
02:55 9.9 °F 9.6 °F 1010.0 in West 9.7 mph 20.9 mph 98 % 0.3 in 0 W/m2
03:00 9.9 °F 9.6 °F 1010.0 in WNW 14.5 mph 19.3 mph 98 % 0.3 in 0 W/m2
03:05 9.9 °F 9.6 °F 1010.0 in WNW 9.7 mph 25.7 mph 98 % 0.3 in 0 W/m2
03:10 9.9 °F 9.6 °F 1010.0 in West 6.4 mph 25.7 mph 98 % 0.3 in 0 W/m2
03:15 9.9 °F 9.6 °F 1010.0 in WNW 8.0 mph 17.7 mph 98 % 0.3 in 0 W/m2
03:20 9.9 °F 9.6 °F 1010.0 in West 8.0 mph 19.3 mph 98 % 0.3 in 0 W/m2
03:25 9.9 °F 9.6 °F 1009.7 in WNW 3.2 mph 22.5 mph 98 % 0.3 in 0 W/m2
03:30 9.9 °F 9.6 °F 1009.7 in West 6.4 mph 22.5 mph 98 % 0.3 in 0 W/m2
03:35 9.9 °F 9.6 °F 1009.7 in WNW 9.7 mph 20.9 mph 98 % 0.3 in 0 W/m2
03:40 9.9 °F 9.6 °F 1009.7 in NW 6.4 mph 20.9 mph 98 % 0.5 in 0 W/m2
03:45 9.9 °F 9.6 °F 1009.4 in WNW 3.2 mph 20.9 mph 98 % 0.3 in 0 W/m2
03:50 9.9 °F 9.6 °F 1009.7 in WNW 12.9 mph 20.9 mph 98 % 0.3 in 0 W/m2
03:55 9.9 °F 9.6 °F 1009.4 in WNW 6.4 mph 24.1 mph 98 % 0.3 in 0 W/m2
04:00 9.8 °F 9.5 °F 1009.4 in WNW 4.8 mph 24.1 mph 98 % 0.3 in 0 W/m2
04:05 9.9 °F 9.6 °F 1009.4 in NW 11.3 mph 20.9 mph 98 % 0.3 in 0 W/m2
04:10 9.9 °F 9.6 °F 1009.4 in WNW 9.7 mph 22.5 mph 98 % 0.3 in 0 W/m2
04:15 9.9 °F 9.6 °F 1009.4 in WSW 6.4 mph 22.5 mph 98 % 0.5 in 0 W/m2
04:20 9.9 °F 9.6 °F 1009.4 in WNW 6.4 mph 20.9 mph 98 % 0.5 in 0 W/m2
04:25 10.0 °F 9.7 °F 1009.4 in WNW 14.5 mph 20.9 mph 98 % 0.5 in 0 W/m2
04:30 9.9 °F 9.6 °F 1009.4 in WNW 8.0 mph 22.5 mph 98 % 0.5 in 0 W/m2
04:35 9.9 °F 9.6 °F 1009.4 in WNW 14.5 mph 25.7 mph 98 % 0.5 in 0 W/m2
04:40 9.9 °F 9.6 °F 1009.4 in West 22.5 mph 27.4 mph 98 % 0.3 in 0 W/m2
04:45 10.0 °F 9.7 °F 1009.4 in NW 3.2 mph 27.4 mph 98 % 0.3 in 0 W/m2
04:50 10.0 °F 9.7 °F 1009.4 in NW 9.7 mph 27.4 mph 98 % 0.3 in 0 W/m2
04:55 9.9 °F 9.6 °F 1009.4 in NW 20.9 mph 24.1 mph 98 % 0.3 in 0 W/m2
05:00 9.7 °F 9.4 °F 1009.7 in WNW 8.0 mph 27.4 mph 98 % 0.3 in 0 W/m2
05:05 9.6 °F 9.3 °F 1009.7 in NW 8.0 mph 27.4 mph 98 % 0.3 in 0 W/m2
05:10 9.4 °F 9.1 °F 1009.7 in WNW 12.9 mph 24.1 mph 98 % 0.3 in 0 W/m2
05:15 9.3 °F 9.0 °F 1009.7 in NW 9.7 mph 24.1 mph 98 % 0.0 in 0 W/m2
05:20 9.3 °F 9.0 °F 1009.7 in West 12.9 mph 20.9 mph 98 % 0.0 in 0 W/m2
05:25 9.3 °F 9.0 °F 1009.7 in NNW 1.6 mph 24.1 mph 98 % 0.0 in 0 W/m2
05:30 9.3 °F 9.0 °F 1009.7 in NW 6.4 mph 24.1 mph 98 % 0.0 in 0 W/m2
05:35 9.2 °F 8.9 °F 1010.0 in NW 3.2 mph 20.9 mph 98 % 0.0 in 0 W/m2
05:40 9.1 °F 8.8 °F 1010.0 in NW 6.4 mph 20.9 mph 98 % 0.0 in 0 W/m2
05:45 9.1 °F 8.8 °F 1010.0 in WNW 6.4 mph 20.9 mph 98 % 0.0 in 0 W/m2
05:50 8.9 °F 8.6 °F 1010.0 in NW 11.3 mph 19.3 mph 98 % 0.0 in 0 W/m2
05:55 8.9 °F 8.6 °F 1010.0 in NW 12.9 mph 19.3 mph 98 % 0.0 in 0 W/m2
06:00 8.8 °F 8.5 °F 1010.0 in WNW 8.0 mph 16.1 mph 98 % 0.0 in 0 W/m2
06:05 8.7 °F 8.4 °F 1010.0 in WNW 11.3 mph 14.5 mph 98 % 0.0 in 0 W/m2
06:10 8.7 °F 8.4 °F 1010.4 in NW 6.4 mph 19.3 mph 98 % 0.0 in 0 W/m2
06:15 8.6 °F 8.3 °F 1010.4 in NNW 12.9 mph 19.3 mph 98 % 0.0 in 0 W/m2
06:20 8.6 °F 8.3 °F 1010.4 in NNW 8.0 mph 12.9 mph 98 % 0.0 in 0 W/m2
06:25 8.6 °F 8.3 °F 1010.4 in NNW 6.4 mph 12.9 mph 98 % 0.0 in 0 W/m2
06:30 8.4 °F 8.1 °F 1010.4 in NNW 8.0 mph 22.5 mph 98 % 0.0 in 0 W/m2
06:35 8.2 °F 7.7 °F 1010.7 in NW 8.0 mph 22.5 mph 97 % 0.0 in 0 W/m2
06:40 7.7 °F 7.2 °F 1010.7 in NW 4.8 mph 20.9 mph 97 % 0.0 in 0 W/m2
06:45 7.2 °F 6.8 °F 1010.7 in NW 4.8 mph 20.9 mph 97 % 0.0 in 0 W/m2
06:50 6.8 °F 6.4 °F 1011.1 in NW 14.5 mph 17.7 mph 97 % 0.0 in 0 W/m2
06:55 6.6 °F 6.2 °F 1011.1 in NW 3.2 mph 17.7 mph 97 % 0.0 in 0 W/m2
07:00 6.6 °F 6.1 °F 1011.1 in NW 9.7 mph 22.5 mph 97 % 0.0 in 0 W/m2
07:05 6.7 °F 6.2 °F 1011.1 in NW 9.7 mph 22.5 mph 97 % 0.0 in 0 W/m2
07:10 6.7 °F 6.3 °F 1011.4 in NW 3.2 mph 14.5 mph 97 % 0.0 in 0 W/m2
07:15 6.7 °F 6.3 °F 1011.1 in NNW 6.4 mph 12.9 mph 97 % 0.0 in 0 W/m2
07:20 6.8 °F 6.4 °F 1011.4 in NNW 1.6 mph 12.9 mph 97 % 0.0 in 0 W/m2
07:25 7.1 °F 6.6 °F 1011.4 in NW 9.7 mph 12.9 mph 97 % 0.0 in 0 W/m2
07:30 7.1 °F 6.5 °F 1011.4 in NW 6.4 mph 12.9 mph 96 % 0.0 in 0 W/m2
07:35 7.0 °F 6.4 °F 1011.4 in NW 1.6 mph 11.3 mph 96 % 0.0 in 0 W/m2
07:40 6.9 °F 6.4 °F 1011.4 in NNW 6.4 mph 11.3 mph 96 % 0.0 in 0 W/m2
07:45 6.8 °F 6.2 °F 1011.4 in NW 3.2 mph 9.7 mph 96 % 0.0 in 0 W/m2
07:50 6.6 °F 5.9 °F 1011.7 in WNW 4.8 mph 9.7 mph 95 % 0.0 in 0 W/m2
07:55 6.4 °F 5.9 °F 1011.7 in WNW 9.7 mph 12.9 mph 96 % 0.0 in 0 W/m2
08:00 6.4 °F 5.8 °F 1011.7 in NW 3.2 mph 12.9 mph 96 % 0.0 in 0 W/m2
08:05 6.3 °F 5.6 °F 1011.7 in WNW 3.2 mph 11.3 mph 95 % 0.0 in 0 W/m2
08:10 6.3 °F 5.5 °F 1012.1 in WNW 6.4 mph 11.3 mph 95 % 0.0 in 0 W/m2
08:15 6.0 °F 5.3 °F 1012.1 in WNW 4.8 mph 9.7 mph 95 % 0.0 in 0 W/m2
08:20 5.9 °F 5.2 °F 1012.1 in Calm   11.3 mph 95 % 0.0 in 5 W/m2
08:25 6.1 °F 5.3 °F 1012.4 in WNW 1.6 mph 11.3 mph 95 % 0.0 in 5 W/m2
08:30 6.1 °F 5.3 °F 1012.4 in WNW 4.8 mph 9.7 mph 95 % 0.0 in 9 W/m2
08:35 6.1 °F 5.4 °F 1012.4 in WNW 6.4 mph 12.9 mph 95 % 0.0 in 12 W/m2
08:40 6.3 °F 5.5 °F 1012.4 in NNW 9.7 mph 12.9 mph 95 % 0.0 in 18 W/m2
08:45 6.4 °F 5.7 °F 1012.4 in NW 3.2 mph 12.9 mph 95 % 0.0 in 26 W/m2
08:50 6.6 °F 5.8 °F 1012.4 in WNW 3.2 mph 12.9 mph 95 % 0.0 in 28 W/m2
08:55 6.7 °F 6.0 °F 1012.4 in NW 11.3 mph 11.3 mph 95 % 0.0 in 33 W/m2
09:00 6.8 °F 5.9 °F 1012.8 in WNW 4.8 mph 14.5 mph 94 % 0.0 in 32 W/m2
09:05 6.7 °F 5.8 °F 1012.8 in NW 11.3 mph 14.5 mph 94 % 0.0 in 37 W/m2
09:10 6.7 °F 5.8 °F 1012.8 in NW 9.7 mph 14.5 mph 94 % 0.0 in 42 W/m2
09:15 6.7 °F 5.8 °F 1012.8 in NW 6.4 mph 17.7 mph 94 % 0.0 in 44 W/m2
09:20 6.8 °F 5.7 °F 1012.8 in WNW 6.4 mph 17.7 mph 93 % 0.0 in 53 W/m2
09:25 6.9 °F 5.8 °F 1012.8 in WNW 6.4 mph 14.5 mph 93 % 0.0 in 58 W/m2
09:30 6.9 °F 5.7 °F 1013.1 in NW 6.4 mph 11.3 mph 92 % 0.0 in 53 W/m2
09:35 6.9 °F 5.7 °F 1013.1 in WNW 9.7 mph 12.9 mph 92 % 0.0 in 62 W/m2
09:40 7.0 °F 5.8 °F 1013.1 in WNW 4.8 mph 14.5 mph 92 % 0.0 in 86 W/m2
09:45 7.3 °F 6.1 °F 1013.1 in NW 4.8 mph 14.5 mph 92 % 0.0 in 113 W/m2
09:50 7.4 °F 6.1 °F 1013.1 in NW 9.7 mph 11.3 mph 91 % 0.0 in 114 W/m2
09:55 7.6 °F 6.1 °F 1013.1 in NW 8.0 mph 11.3 mph 90 % 0.0 in 118 W/m2
10:00 7.7 °F 6.1 °F 1013.1 in WNW 6.4 mph 14.5 mph 90 % 0.0 in 118 W/m2
10:05 7.7 °F 6.0 °F 1013.1 in NW 1.6 mph 14.5 mph 89 % 0.0 in 127 W/m2
10:10 7.8 °F 5.9 °F 1013.1 in NW 3.2 mph 12.9 mph 88 % 0.0 in 134 W/m2
10:15 7.8 °F 6.0 °F 1013.1 in Calm   12.9 mph 88 % 0.0 in 195 W/m2
10:25 8.1 °F 6.0 °F 1013.4 in Calm   12.9 mph 87 % 0.0 in 114 W/m2
10:30 8.0 °F 5.8 °F 1013.4 in WNW 4.8 mph 19.3 mph 86 % 0.0 in 139 W/m2
10:35 8.0 °F 6.0 °F 1013.4 in WNW 8.0 mph 19.3 mph 87 % 0.0 in 162 W/m2
10:40 8.2 °F 6.1 °F 1013.4 in WNW 6.4 mph 16.1 mph 87 % 0.0 in 183 W/m2
10:45 8.3 °F 6.1 °F 1013.4 in NNW 6.4 mph 16.1 mph 86 % 0.0 in 265 W/m2
10:50 8.5 °F 6.3 °F 1013.4 in NW 1.6 mph 14.5 mph 86 % 0.0 in 253 W/m2
10:55 8.6 °F 6.1 °F 1013.4 in WNW 8.0 mph 16.1 mph 84 % 0.0 in 309 W/m2
11:00 8.6 °F 6.1 °F 1013.4 in NW 8.0 mph 16.1 mph 84 % 0.0 in 165 W/m2
11:05 8.5 °F 5.9 °F 1013.4 in NW 4.8 mph 14.5 mph 84 % 0.0 in 192 W/m2
11:10 8.4 °F 5.9 °F 1013.4 in WNW 6.4 mph 19.3 mph 84 % 0.0 in 202 W/m2
11:15 8.6 °F 5.8 °F 1013.4 in WNW 6.4 mph 20.9 mph 83 % 0.0 in 199 W/m2
11:20 8.7 °F 5.8 °F 1013.4 in NNW 12.9 mph 20.9 mph 82 % 0.0 in 197 W/m2
11:25 8.9 °F 6.2 °F 1013.4 in WNW 8.0 mph 20.9 mph 83 % 0.0 in 244 W/m2
11:30 8.9 °F 5.9 °F 1013.4 in NW 11.3 mph 20.9 mph 81 % 0.0 in 283 W/m2
11:35 9.5 °F 6.6 °F 1013.4 in NNW 16.1 mph 20.9 mph 82 % 0.0 in 304 W/m2
11:40 9.9 °F 6.5 °F 1013.4 in NNW 8.0 mph 19.3 mph 79 % 0.0 in 464 W/m2
11:45 9.8 °F 5.8 °F 1013.4 in WNW 12.9 mph 19.3 mph 76 % 0.0 in 250 W/m2
11:50 9.3 °F 5.3 °F 1013.4 in NW 8.0 mph 19.3 mph 76 % 0.0 in 195 W/m2
11:55 9.3 °F 5.6 °F 1013.4 in WNW 9.7 mph 19.3 mph 78 % 0.0 in 482 W/m2
12:00 9.9 °F 5.9 °F 1013.4 in NNW 4.8 mph 17.7 mph 76 % 0.0 in 445 W/m2
12:05 10.3 °F 5.9 °F 1013.4 in WNW 11.3 mph 25.7 mph 74 % 0.0 in 520 W/m2
12:10 10.3 °F 5.9 °F 1013.4 in WNW 17.7 mph 25.7 mph 74 % 0.0 in 538 W/m2
12:15 10.4 °F 5.8 °F 1013.4 in NW 14.5 mph 25.7 mph 73 % 0.0 in 462 W/m2
12:20 10.5 °F 5.9 °F 1013.4 in WNW 12.9 mph 25.7 mph 73 % 0.0 in 504 W/m2
12:25 10.3 °F 5.8 °F 1013.4 in NW 11.3 mph 20.9 mph 74 % 0.0 in 299 W/m2
12:30 10.1 °F 5.7 °F 1013.4 in WNW 17.7 mph 24.1 mph 74 % 0.0 in 258 W/m2
12:35 10.1 °F 5.8 °F 1013.4 in WNW 6.4 mph 24.1 mph 75 % 0.0 in 262 W/m2
12:40 9.9 °F 5.3 °F 1013.4 in NW 8.0 mph 25.7 mph 73 % 0.0 in 295 W/m2
12:45 9.9 °F 5.3 °F 1013.4 in NW 9.7 mph 25.7 mph 73 % 0.0 in 262 W/m2
12:50 9.9 °F 5.7 °F 1013.4 in NW 6.4 mph 25.7 mph 75 % 0.0 in 218 W/m2
12:55 9.8 °F 5.6 °F 1013.4 in NNW 9.7 mph 20.9 mph 75 % 0.0 in 223 W/m2
13:00 9.8 °F 5.7 °F 1013.4 in WNW 14.5 mph 20.9 mph 76 % 0.0 in 223 W/m2
13:05 9.8 °F 5.9 °F 1013.4 in WNW 8.0 mph 20.9 mph 77 % 0.0 in 272 W/m2
13:10 9.9 °F 6.3 °F 1013.4 in NW 14.5 mph 20.9 mph 78 % 0.0 in 308 W/m2
13:15 9.9 °F 5.9 °F 1013.4 in WNW 9.7 mph 20.9 mph 76 % 0.0 in 236 W/m2
13:20 9.7 °F 5.7 °F 1013.4 in West 8.0 mph 24.1 mph 76 % 0.0 in 162 W/m2
13:25 9.6 °F 5.5 °F 1013.4 in West 6.4 mph 24.1 mph 76 % 0.0 in 111 W/m2
13:30 9.4 °F 5.6 °F 1013.4 in WNW 9.7 mph 19.3 mph 77 % 0.0 in 114 W/m2
13:35 9.3 °F 5.5 °F 1013.4 in West 12.9 mph 22.5 mph 77 % 0.0 in 158 W/m2
13:40 9.3 °F 5.5 °F 1013.4 in WNW 9.7 mph 25.7 mph 77 % 0.0 in 211 W/m2
13:45 9.4 °F 5.4 °F 1013.1 in West 8.0 mph 25.7 mph 76 % 0.0 in 197 W/m2
13:50 9.7 °F 5.8 °F 1013.1 in WNW 14.5 mph 25.7 mph 77 % 0.0 in 237 W/m2
13:55 9.7 °F 5.7 °F 1013.1 in WNW 19.3 mph 24.1 mph 76 % 0.0 in 265 W/m2
14:00 9.8 °F 5.6 °F 1013.1 in West 16.1 mph 24.1 mph 75 % 0.0 in 274 W/m2
14:05 9.9 °F 5.7 °F 1013.4 in NW 14.5 mph 24.1 mph 75 % 0.0 in 269 W/m2
14:10 9.8 °F 5.2 °F 1013.1 in West 16.1 mph 27.4 mph 73 % 0.0 in 171 W/m2
14:15 9.7 °F 5.3 °F 1013.1 in West 14.5 mph 27.4 mph 74 % 0.0 in 306 W/m2
14:20 10.2 °F 5.4 °F 1013.1 in NW 17.7 mph 27.4 mph 72 % 0.0 in 554 W/m2
14:25 11.2 °F 6.8 °F 1013.1 in WNW 14.5 mph 27.4 mph 74 % 0.0 in 394 W/m2
14:30 10.8 °F 6.2 °F 1013.1 in NNW 14.5 mph 25.7 mph 73 % 0.0 in 246 W/m2
14:35 10.2 °F 4.9 °F 1013.4 in West 9.7 mph 22.5 mph 70 % 0.0 in 130 W/m2
14:40 9.7 °F 4.7 °F 1013.4 in WNW 16.1 mph 27.4 mph 71 % 0.0 in 188 W/m2
14:45 9.6 °F 5.1 °F 1013.4 in WNW 16.1 mph 27.4 mph 74 % 0.0 in 163 W/m2
14:50 9.3 °F 5.3 °F 1013.4 in NW 29.0 mph 29.0 mph 76 % 0.0 in 223 W/m2
14:55 9.2 °F 5.5 °F 1013.4 in West 17.7 mph 29.0 mph 78 % 0.0 in 142 W/m2
15:00 9.1 °F 5.2 °F 1013.4 in WNW 12.9 mph 29.0 mph 77 % 0.0 in 169 W/m2
15:05 8.9 °F 4.5 °F 1013.4 in West 14.5 mph 24.1 mph 74 % 0.0 in 153 W/m2
15:10 8.8 °F 4.6 °F 1013.4 in West 6.4 mph 24.1 mph 75 % 0.0 in 218 W/m2
15:15 8.8 °F 4.8 °F 1013.4 in NW 6.4 mph 22.5 mph 76 % 0.0 in 167 W/m2
15:20 8.6 °F 4.4 °F 1013.4 in NW 6.4 mph 27.4 mph 75 % 0.0 in 114 W/m2
15:25 8.4 °F 4.6 °F 1013.4 in NW 22.5 mph 32.2 mph 77 % 0.0 in 116 W/m2
15:30 8.3 °F 4.9 °F 1013.8 in North 8.0 mph 32.2 mph 79 % 0.0 in 111 W/m2
15:35 8.4 °F 5.0 °F 1013.4 in NNW 12.9 mph 25.7 mph 79 % 0.0 in 113 W/m2
15:40 8.4 °F 5.0 °F 1013.8 in NW 17.7 mph 20.9 mph 79 % 0.0 in 121 W/m2
15:45 8.4 °F 4.8 °F 1013.4 in NW 11.3 mph 20.9 mph 78 % 0.0 in 121 W/m2
15:50 8.5 °F 5.1 °F 1013.8 in NW 12.9 mph 20.9 mph 79 % 0.0 in 114 W/m2
15:55 8.5 °F 5.1 °F 1013.4 in NNW 17.7 mph 17.7 mph 79 % 0.0 in 123 W/m2
16:00 8.4 °F 4.8 °F 1013.4 in WNW 9.7 mph 17.7 mph 78 % 0.0 in 105 W/m2
16:05 8.4 °F 4.8 °F 1013.4 in NNW 9.7 mph 17.7 mph 78 % 0.0 in 113 W/m2
16:10 8.3 °F 4.2 °F 1013.8 in NW 12.9 mph 25.7 mph 75 % 0.0 in 77 W/m2
16:15 8.2 °F 3.9 °F 1013.8 in WNW 3.2 mph 25.7 mph 74 % 0.0 in 62 W/m2
16:20 8.2 °F 4.0 °F 1013.8 in NNW 8.0 mph 25.7 mph 75 % 0.0 in 90 W/m2
16:25 8.2 °F 4.2 °F 1013.8 in NW 6.4 mph 25.7 mph 76 % 0.0 in 104 W/m2
16:30 8.3 °F 4.5 °F 1013.8 in WNW 9.7 mph 17.7 mph 77 % 0.0 in 86 W/m2
16:35 8.2 °F 4.4 °F 1013.8 in NW 3.2 mph 17.7 mph 77 % 0.0 in 93 W/m2
16:40 8.3 °F 4.7 °F 1013.8 in NW 9.7 mph 14.5 mph 78 % 0.0 in 91 W/m2
16:45 8.2 °F 4.6 °F 1013.8 in Calm   14.5 mph 78 % 0.0 in 93 W/m2
16:50 8.2 °F 4.6 °F 1013.8 in NW 3.2 mph 12.9 mph 78 % 0.0 in 91 W/m2
16:55 8.2 °F 5.0 °F 1013.8 in NW 6.4 mph 11.3 mph 80 % 0.0 in 81 W/m2
17:00 8.2 °F 4.9 °F 1013.8 in NNW 1.6 mph 9.7 mph 80 % 0.0 in 76 W/m2
17:05 8.1 °F 4.8 °F 1013.8 in NW 3.2 mph 9.7 mph 80 % 0.0 in 63 W/m2
17:10 7.9 °F 4.8 °F 1013.8 in North 6.4 mph 9.7 mph 81 % 0.0 in 44 W/m2
17:15 7.6 °F 4.5 °F 1013.8 in Calm   9.7 mph 81 % 0.0 in 53 W/m2
17:20 7.5 °F 4.8 °F 1013.8 in NW 4.8 mph 9.7 mph 83 % 0.0 in 56 W/m2
17:25 7.5 °F 4.8 °F 1013.8 in Calm   9.7 mph 83 % 0.0 in 46 W/m2
17:30 7.6 °F 4.7 °F 1014.1 in Calm   9.7 mph 82 % 0.0 in 40 W/m2
17:35 7.6 °F 4.9 °F 1014.1 in NW 6.4 mph 9.7 mph 83 % 0.0 in 28 W/m2
17:40 7.5 °F 5.0 °F 1014.1 in WNW 6.4 mph 9.7 mph 84 % 0.0 in 21 W/m2
17:45 7.6 °F 4.7 °F 1014.1 in NW 4.8 mph 12.9 mph 82 % 0.0 in 26 W/m2
17:50 7.6 °F 4.7 °F 1014.1 in NW 4.8 mph 12.9 mph 82 % 0.0 in 25 W/m2
17:55 7.4 °F 4.6 °F 1014.1 in NW 6.4 mph 19.3 mph 82 % 0.0 in 21 W/m2
18:00 7.3 °F 4.4 °F 1014.4 in North 11.3 mph 19.3 mph 82 % 0.0 in 19 W/m2
18:05 7.1 °F 3.7 °F 1014.4 in NNW 1.6 mph 17.7 mph 79 % 0.0 in 16 W/m2
18:10 6.9 °F 3.5 °F 1014.4 in WNW 3.2 mph 22.5 mph 79 % 0.0 in 12 W/m2
18:15 6.7 °F 3.2 °F 1014.8 in NW 6.4 mph 22.5 mph 78 % 0.0 in 9 W/m2
18:20 6.6 °F 3.2 °F 1014.8 in NNW 17.7 mph 27.4 mph 79 % 0.0 in 5 W/m2
18:25 6.6 °F 3.2 °F 1014.8 in NW 11.3 mph 27.4 mph 79 % 0.0 in 0 W/m2
18:30 6.5 °F 3.1 °F 1015.1 in North 9.7 mph 20.9 mph 79 % 0.0 in 0 W/m2
18:35 6.4 °F 3.1 °F 1015.1 in NNW 11.3 mph 22.5 mph 79 % 0.0 in 0 W/m2
18:40 6.3 °F 3.1 °F 1015.1 in NNE 4.8 mph 22.5 mph 80 % 0.0 in 0 W/m2
18:45 6.1 °F 3.1 °F 1015.1 in NNW 6.4 mph 19.3 mph 81 % 0.0 in 0 W/m2
18:50 5.9 °F 3.0 °F 1015.1 in North 6.4 mph 19.3 mph 82 % 0.0 in 0 W/m2
18:55 5.8 °F 3.0 °F 1015.5 in Calm   16.1 mph 82 % 0.0 in 0 W/m2
19:00 5.7 °F 3.0 °F 1015.5 in NW 6.4 mph 12.9 mph 83 % 0.0 in 0 W/m2
19:05 5.7 °F 2.8 °F 1015.5 in North 4.8 mph 12.9 mph 82 % 0.0 in 0 W/m2
19:10 5.6 °F 2.9 °F 1015.8 in NW 1.6 mph 12.9 mph 83 % 0.0 in 0 W/m2
19:15 5.5 °F 2.8 °F 1015.8 in NNW 6.4 mph 12.9 mph 83 % 0.0 in 0 W/m2
19:20 5.3 °F 2.7 °F 1015.8 in NW 3.2 mph 12.9 mph 83 % 0.0 in 0 W/m2
19:25 5.3 °F 2.6 °F 1015.8 in NW 4.8 mph 12.9 mph 83 % 0.0 in 0 W/m2
19:30 5.0 °F 2.5 °F 1015.8 in NW 6.4 mph 12.9 mph 84 % 0.0 in 0 W/m2
19:35 4.9 °F 2.5 °F 1015.8 in NW 3.2 mph 9.7 mph 84 % 0.0 in 0 W/m2
19:40 4.9 °F 2.4 °F 1015.8 in WNW 3.2 mph 9.7 mph 84 % 0.0 in 0 W/m2
19:45 4.9 °F 2.4 °F 1016.1 in Calm   11.3 mph 84 % 0.0 in 0 W/m2
19:50 4.9 °F 2.3 °F 1016.1 in WNW 3.2 mph 16.1 mph 83 % 0.0 in 0 W/m2
19:55 5.1 °F 2.2 °F 1016.1 in NW 9.7 mph 16.1 mph 82 % 0.0 in 0 W/m2
20:00 4.8 °F 1.8 °F 1016.1 in NW 3.2 mph 12.9 mph 81 % 0.0 in 0 W/m2
20:05 4.4 °F 1.5 °F 1016.1 in NNW 1.6 mph 12.9 mph 81 % 0.0 in 0 W/m2
20:10 4.2 °F 1.4 °F 1016.5 in WNW 4.8 mph 12.9 mph 82 % 0.0 in 0 W/m2
20:15 4.1 °F 1.3 °F 1016.5 in NNW 6.4 mph 11.3 mph 82 % 0.0 in 0 W/m2
20:20 4.1 °F 1.1 °F 1016.5 in WNW 4.8 mph 22.5 mph 81 % 0.0 in 0 W/m2
20:25 4.2 °F 1.2 °F 1016.8 in NNW 9.7 mph 22.5 mph 81 % 0.0 in 0 W/m2
20:30 4.1 °F 1.0 °F 1016.8 in NW 3.2 mph 19.3 mph 80 % 0.0 in 0 W/m2
20:35 4.1 °F 1.1 °F 1016.8 in NW 3.2 mph 17.7 mph 81 % 0.0 in 0 W/m2
20:40 3.8 °F 0.9 °F 1017.2 in WNW 4.8 mph 17.7 mph 81 % 0.0 in 0 W/m2
20:45 3.8 °F 1.0 °F 1017.2 in NNW 6.4 mph 19.3 mph 82 % 0.0 in 0 W/m2
20:50 3.7 °F 0.9 °F 1017.2 in North 9.7 mph 19.3 mph 82 % 0.0 in 0 W/m2
20:55 3.6 °F 1.0 °F 1017.2 in WNW 1.6 mph 17.7 mph 83 % 0.0 in 0 W/m2
21:00 3.6 °F 1.2 °F 1017.5 in NW 14.5 mph 17.7 mph 84 % 0.0 in 0 W/m2
21:05 3.6 °F 1.1 °F 1017.5 in NNW 3.2 mph 14.5 mph 84 % 0.0 in 0 W/m2
21:10 3.4 °F 1.2 °F 1017.5 in North 4.8 mph 14.5 mph 85 % 0.0 in 0 W/m2
21:15 3.3 °F 1.0 °F 1017.5 in WNW 6.4 mph 14.5 mph 85 % 0.0 in 0 W/m2
21:20 3.4 °F 1.3 °F 1017.5 in WNW 14.5 mph 27.4 mph 86 % 0.0 in 0 W/m2
21:30 3.5 °F 1.2 °F 1017.8 in Calm   22.5 mph 85 % 0.0 in 0 W/m2
21:35 3.3 °F 1.0 °F 1017.8 in NW 4.8 mph 19.3 mph 85 % 0.0 in 0 W/m2
21:40 3.1 °F 1.0 °F 1017.8 in NNW 4.8 mph 16.1 mph 86 % 0.0 in 0 W/m2
21:45 2.9 °F 0.8 °F 1017.8 in NNW 1.6 mph 16.1 mph 86 % 0.0 in 0 W/m2
21:50 2.8 °F 0.7 °F 1017.8 in NNW 1.6 mph 16.1 mph 86 % 0.0 in 0 W/m2
21:55 2.7 °F 0.7 °F 1017.8 in NNW 3.2 mph 16.1 mph 87 % 0.0 in 0 W/m2
22:00 2.5 °F 0.6 °F 1017.8 in NW 3.2 mph 12.9 mph 87 % 0.0 in 0 W/m2
22:10 2.4 °F 0.6 °F 1018.2 in NW 4.8 mph 11.3 mph 88 % 0.0 in 0 W/m2
22:15 2.2 °F 0.4 °F 1018.2 in WNW 3.2 mph 11.3 mph 88 % 0.0 in 0 W/m2
22:20 2.1 °F 0.3 °F 1018.2 in Calm   11.3 mph 88 % 0.0 in 0 W/m2
22:25 2.2 °F 0.5 °F 1018.2 in NW 3.2 mph 9.7 mph 89 % 0.0 in 0 W/m2
22:30 2.1 °F 0.5 °F 1018.2 in WNW 1.6 mph 8.0 mph 89 % 0.0 in 0 W/m2
22:35 2.2 °F 0.5 °F 1018.2 in NW 3.2 mph 9.7 mph 89 % 0.0 in 0 W/m2
22:40 2.2 °F 0.5 °F 1018.2 in NW 6.4 mph 9.7 mph 89 % 0.0 in 0 W/m2
22:45 2.1 °F 0.4 °F 1018.5 in WNW 1.6 mph 9.7 mph 89 % 0.0 in 0 W/m2
22:50 2.0 °F 0.4 °F 1018.5 in WNW 3.2 mph 8.0 mph 89 % 0.0 in 0 W/m2
22:55 2.1 °F 0.6 °F 1018.5 in WNW 3.2 mph 8.0 mph 90 % 0.0 in 0 W/m2
23:00 1.8 °F 0.2 °F 1018.5 in WNW 6.4 mph 8.0 mph 89 % 0.0 in 0 W/m2
23:05 1.6 °F 0.1 °F 1018.5 in WNW 4.8 mph 8.0 mph 90 % 0.0 in 0 W/m2
23:10 1.6 °F 0.1 °F 1018.5 in WNW 1.6 mph 11.3 mph 90 % 0.0 in 0 W/m2
23:15 1.7 °F 0.4 °F 1018.5 in WNW 6.4 mph 11.3 mph 91 % 0.0 in 0 W/m2
23:20 1.8 °F 0.5 °F 1018.5 in NW 6.4 mph 11.3 mph 91 % 0.0 in 0 W/m2
23:25 1.8 °F 0.5 °F 1018.5 in WNW 4.8 mph 11.3 mph 91 % 0.0 in 0 W/m2
23:30 2.0 °F 0.8 °F 1018.5 in NW 3.2 mph 9.7 mph 92 % 0.0 in 0 W/m2
23:35 2.1 °F 0.9 °F 1018.5 in WNW 3.2 mph 12.9 mph 92 % 0.0 in 0 W/m2
23:40 2.1 °F 0.9 °F 1018.8 in NW 8.0 mph 12.9 mph 92 % 0.0 in 0 W/m2
23:45 2.1 °F 0.9 °F 1018.8 in NW 3.2 mph 12.9 mph 92 % 0.0 in 0 W/m2
23:50 2.2 °F 1.1 °F 1018.8 in NW 8.0 mph 12.9 mph 92 % 0.0 in 0 W/m2
23:55 2.3 °F 1.1 °F 1018.8 in NW 1.6 mph 9.7 mph 92 % 0.0 in 0 W/m2
Avec l'autorisation de Weather Underground - 1.75 mb